sensor_id;sensor_type;location;lat;lon;timestamp;pressure;altitude;pressure_sealevel;temperature;humidity
63970;BME280;50156;37.772;-122.432;2022-12-13T00:01:32;100733.66;;;10.97;100.00
63970;BME280;50156;37.772;-122.432;2022-12-13T00:04:03;100717.64;;;10.93;100.00
63970;BME280;50156;37.772;-122.432;2022-12-13T00:06:33;100706.66;;;10.77;100.00
63970;BME280;50156;37.772;-122.432;2022-12-13T00:09:02;100694.55;;;10.45;100.00
63970;BME280;50156;37.772;-122.432;2022-12-13T00:11:31;100669.24;;;10.26;100.00
63970;BME280;50156;37.772;-122.432;2022-12-13T00:14:01;100632.37;;;10.19;100.00
63970;BME280;50156;37.772;-122.432;2022-12-13T00:16:30;100607.60;;;10.03;100.00
63970;BME280;50156;37.772;-122.432;2022-12-13T00:19:00;100533.83;;;10.03;100.00
63970;BME280;50156;37.772;-122.432;2022-12-13T00:21:30;100509.33;;;9.88;100.00
63970;BME280;50156;37.772;-122.432;2022-12-13T00:24:00;100471.90;;;9.81;100.00
63970;BME280;50156;37.772;-122.432;2022-12-13T00:26:32;100416.13;;;9.78;100.00
63970;BME280;50156;37.772;-122.432;2022-12-13T00:29:03;100379.22;;;9.67;100.00
63970;BME280;50156;37.772;-122.432;2022-12-13T00:31:32;100375.67;;;9.65;100.00
63970;BME280;50156;37.772;-122.432;2022-12-13T00:34:01;100333.82;;;9.56;100.00
63970;BME280;50156;37.772;-122.432;2022-12-13T00:36:30;100337.69;;;9.51;100.00
63970;BME280;50156;37.772;-122.432;2022-12-13T00:38:58;100354.95;;;9.48;100.00
63970;BME280;50156;37.772;-122.432;2022-12-13T00:41:28;100370.11;;;9.44;100.00
63970;BME280;50156;37.772;-122.432;2022-12-13T00:43:58;100392.59;;;9.41;100.00
63970;BME280;50156;37.772;-122.432;2022-12-13T00:46:28;100421.28;;;9.32;100.00
63970;BME280;50156;37.772;-122.432;2022-12-13T00:48:59;100438.66;;;9.26;100.00
63970;BME280;50156;37.772;-122.432;2022-12-13T00:51:31;100469.34;;;9.22;100.00
63970;BME280;50156;37.772;-122.432;2022-12-13T00:54:01;100485.49;;;9.18;100.00
63970;BME280;50156;37.772;-122.432;2022-12-13T00:56:31;100494.45;;;9.11;100.00
63970;BME280;50156;37.772;-122.432;2022-12-13T00:59:00;100500.29;;;9.11;100.00
63970;BME280;50156;37.772;-122.432;2022-12-13T01:01:31;100509.56;;;9.07;100.00
63970;BME280;50156;37.772;-122.432;2022-12-13T01:04:04;100512.71;;;9.01;100.00
63970;BME280;50156;37.772;-122.432;2022-12-13T01:06:36;100518.30;;;9.02;100.00
63970;BME280;50156;37.772;-122.432;2022-12-13T01:09:07;100528.28;;;8.96;100.00
63970;BME280;50156;37.772;-122.432;2022-12-13T01:11:37;100536.34;;;8.95;100.00
63970;BME280;50156;37.772;-122.432;2022-12-13T01:14:06;100541.90;;;8.93;100.00
63970;BME280;50156;37.772;-122.432;2022-12-13T01:16:35;100544.55;;;8.90;100.00
63970;BME280;50156;37.772;-122.432;2022-12-13T01:19:03;100553.89;;;8.91;100.00
63970;BME280;50156;37.772;-122.432;2022-12-13T01:21:32;100550.94;;;8.88;100.00
63970;BME280;50156;37.772;-122.432;2022-12-13T01:24:01;100555.49;;;8.88;100.00
63970;BME280;50156;37.772;-122.432;2022-12-13T01:26:31;100557.43;;;8.84;100.00
63970;BME280;50156;37.772;-122.432;2022-12-13T01:29:00;100564.87;;;8.83;100.00
63970;BME280;50156;37.772;-122.432;2022-12-13T01:31:29;100571.82;;;8.80;100.00
63970;BME280;50156;37.772;-122.432;2022-12-13T01:33:57;100576.73;;;8.77;100.00
63970;BME280;50156;37.772;-122.432;2022-12-13T01:36:25;100575.09;;;8.76;100.00
63970;BME280;50156;37.772;-122.432;2022-12-13T01:38:54;100580.00;;;8.71;100.00
63970;BME280;50156;37.772;-122.432;2022-12-13T01:41:22;100588.11;;;8.74;100.00
63970;BME280;50156;37.772;-122.432;2022-12-13T01:43:54;100591.89;;;8.79;100.00
63970;BME280;50156;37.772;-122.432;2022-12-13T01:46:23;100590.45;;;8.72;100.00
63970;BME280;50156;37.772;-122.432;2022-12-13T01:48:58;100594.54;;;8.70;100.00
63970;BME280;50156;37.772;-122.432;2022-12-13T01:51:30;100598.20;;;8.72;100.00
63970;BME280;50156;37.772;-122.432;2022-12-13T01:54:02;100599.88;;;8.69;100.00
63970;BME280;50156;37.772;-122.432;2022-12-13T01:56:35;100603.80;;;8.69;100.00
63970;BME280;50156;37.772;-122.432;2022-12-13T01:59:07;100602.39;;;8.68;100.00
63970;BME280;50156;37.772;-122.432;2022-12-13T02:01:37;100601.78;;;8.68;100.00
63970;BME280;50156;37.772;-122.432;2022-12-13T02:04:06;100602.99;;;8.68;100.00
63970;BME280;50156;37.772;-122.432;2022-12-13T02:06:37;100599.12;;;8.65;100.00
63970;BME280;50156;37.772;-122.432;2022-12-13T02:09:09;100606.68;;;8.66;100.00
63970;BME280;50156;37.772;-122.432;2022-12-13T02:11:40;100607.78;;;8.66;100.00
63970;BME280;50156;37.772;-122.432;2022-12-13T02:14:09;100611.34;;;8.64;100.00
63970;BME280;50156;37.772;-122.432;2022-12-13T02:16:47;100615.21;;;8.66;100.00
63970;BME280;50156;37.772;-122.432;2022-12-13T02:20:00;100620.14;;;8.62;100.00
63970;BME280;50156;37.772;-122.432;2022-12-13T02:22:53;100631.95;;;8.50;100.00
63970;BME280;50156;37.772;-122.432;2022-12-13T02:25:37;100636.00;;;8.47;100.00
63970;BME280;50156;37.772;-122.432;2022-12-13T02:28:22;100642.57;;;8.40;100.00
63970;BME280;50156;37.772;-122.432;2022-12-13T02:30:59;100648.69;;;8.36;100.00
63970;BME280;50156;37.772;-122.432;2022-12-13T02:33:40;100651.63;;;8.36;100.00
63970;BME280;50156;37.772;-122.432;2022-12-13T02:36:15;100658.07;;;8.35;100.00
63970;BME280;50156;37.772;-122.432;2022-12-13T02:38:51;100656.52;;;8.33;100.00
63970;BME280;50156;37.772;-122.432;2022-12-13T02:41:26;100656.35;;;8.35;100.00
63970;BME280;50156;37.772;-122.432;2022-12-13T02:44:00;100653.84;;;8.37;100.00
63970;BME280;50156;37.772;-122.432;2022-12-13T02:46:35;100657.74;;;8.37;100.00
63970;BME280;50156;37.772;-122.432;2022-12-13T02:49:09;100662.39;;;8.32;100.00
63970;BME280;50156;37.772;-122.432;2022-12-13T02:51:39;100668.85;;;8.35;100.00
63970;BME280;50156;37.772;-122.432;2022-12-13T02:54:07;100673.85;;;8.36;100.00
63970;BME280;50156;37.772;-122.432;2022-12-13T02:56:36;100677.30;;;8.31;100.00
63970;BME280;50156;37.772;-122.432;2022-12-13T02:59:10;100685.50;;;8.33;100.00
63970;BME280;50156;37.772;-122.432;2022-12-13T03:01:47;100682.82;;;8.36;100.00
63970;BME280;50156;37.772;-122.432;2022-12-13T03:04:24;100682.21;;;8.35;100.00
63970;BME280;50156;37.772;-122.432;2022-12-13T03:07:03;100686.66;;;8.33;100.00
63970;BME280;50156;37.772;-122.432;2022-12-13T03:09:43;100694.98;;;8.33;100.00
63970;BME280;50156;37.772;-122.432;2022-12-13T03:12:24;100692.93;;;8.30;100.00
63970;BME280;50156;37.772;-122.432;2022-12-13T03:15:00;100695.36;;;8.30;100.00
63970;BME280;50156;37.772;-122.432;2022-12-13T03:17:36;100697.81;;;8.31;100.00
63970;BME280;50156;37.772;-122.432;2022-12-13T03:20:06;100699.64;;;8.31;100.00
63970;BME280;50156;37.772;-122.432;2022-12-13T03:22:36;100701.34;;;8.33;100.00
63970;BME280;50156;37.772;-122.432;2022-12-13T03:25:06;100699.98;;;8.34;100.00
63970;BME280;50156;37.772;-122.432;2022-12-13T03:27:35;100703.91;;;8.31;100.00
63970;BME280;50156;37.772;-122.432;2022-12-13T03:30:04;100708.60;;;8.27;100.00
63970;BME280;50156;37.772;-122.432;2022-12-13T03:32:33;100709.79;;;8.22;100.00
63970;BME280;50156;37.772;-122.432;2022-12-13T03:35:01;100709.22;;;8.14;100.00
63970;BME280;50156;37.772;-122.432;2022-12-13T03:37:30;100717.22;;;8.10;100.00
63970;BME280;50156;37.772;-122.432;2022-12-13T03:39:59;100725.45;;;8.12;100.00
63970;BME280;50156;37.772;-122.432;2022-12-13T03:42:28;100730.00;;;8.14;100.00
63970;BME280;50156;37.772;-122.432;2022-12-13T03:44:57;100732.46;;;8.12;100.00
63970;BME280;50156;37.772;-122.432;2022-12-13T03:47:26;100731.25;;;8.11;100.00
63970;BME280;50156;37.772;-122.432;2022-12-13T03:49:55;100733.72;;;8.13;100.00
63970;BME280;50156;37.772;-122.432;2022-12-13T03:52:24;100731.07;;;8.09;100.00
63970;BME280;50156;37.772;-122.432;2022-12-13T03:54:52;100732.41;;;8.09;100.00
63970;BME280;50156;37.772;-122.432;2022-12-13T03:57:21;100734.66;;;8.08;100.00
63970;BME280;50156;37.772;-122.432;2022-12-13T03:59:50;100741.43;;;8.03;100.00
63970;BME280;50156;37.772;-122.432;2022-12-13T04:02:19;100752.62;;;8.02;100.00
63970;BME280;50156;37.772;-122.432;2022-12-13T04:04:47;100754.24;;;8.04;100.00
63970;BME280;50156;37.772;-122.432;2022-12-13T04:07:16;100753.63;;;8.06;100.00
63970;BME280;50156;37.772;-122.432;2022-12-13T04:09:44;100753.68;;;8.08;100.00
63970;BME280;50156;37.772;-122.432;2022-12-13T04:12:13;100754.62;;;8.08;100.00
63970;BME280;50156;37.772;-122.432;2022-12-13T04:14:42;100753.18;;;8.10;100.00
63970;BME280;50156;37.772;-122.432;2022-12-13T04:17:10;100754.56;;;8.04;100.00
63970;BME280;50156;37.772;-122.432;2022-12-13T04:19:39;100759.28;;;8.01;100.00
63970;BME280;50156;37.772;-122.432;2022-12-13T04:22:08;100760.79;;;8.08;100.00
63970;BME280;50156;37.772;-122.432;2022-12-13T04:24:36;100762.69;;;8.09;100.00
63970;BME280;50156;37.772;-122.432;2022-12-13T04:27:05;100768.89;;;8.11;100.00
63970;BME280;50156;37.772;-122.432;2022-12-13T04:29:34;100774.51;;;8.07;100.00
63970;BME280;50156;37.772;-122.432;2022-12-13T04:32:04;100776.54;;;8.09;100.00
63970;BME280;50156;37.772;-122.432;2022-12-13T04:34:32;100781.93;;;8.06;100.00
63970;BME280;50156;37.772;-122.432;2022-12-13T04:37:01;100783.44;;;8.08;100.00
63970;BME280;50156;37.772;-122.432;2022-12-13T04:39:30;100784.43;;;8.07;100.00
63970;BME280;50156;37.772;-122.432;2022-12-13T04:41:59;100787.60;;;8.10;100.00
63970;BME280;50156;37.772;-122.432;2022-12-13T04:44:27;100787.01;;;8.05;100.00
63970;BME280;50156;37.772;-122.432;2022-12-13T04:46:56;100793.32;;;8.03;100.00
63970;BME280;50156;37.772;-122.432;2022-12-13T04:49:25;100796.99;;;8.07;100.00
63970;BME280;50156;37.772;-122.432;2022-12-13T04:51:53;100802.88;;;8.05;100.00
63970;BME280;50156;37.772;-122.432;2022-12-13T04:54:22;100805.54;;;8.05;100.00
63970;BME280;50156;37.772;-122.432;2022-12-13T04:56:51;100809.48;;;7.96;100.00
63970;BME280;50156;37.772;-122.432;2022-12-13T04:59:20;100816.10;;;7.91;100.00
63970;BME280;50156;37.772;-122.432;2022-12-13T05:01:48;100818.79;;;7.80;100.00
63970;BME280;50156;37.772;-122.432;2022-12-13T05:04:17;100824.39;;;7.78;100.00
63970;BME280;50156;37.772;-122.432;2022-12-13T05:06:46;100831.91;;;7.66;100.00
63970;BME280;50156;37.772;-122.432;2022-12-13T05:09:14;100835.84;;;7.72;100.00
63970;BME280;50156;37.772;-122.432;2022-12-13T05:11:42;100838.27;;;7.67;100.00
63970;BME280;50156;37.772;-122.432;2022-12-13T05:14:11;100837.24;;;7.72;100.00
63970;BME280;50156;37.772;-122.432;2022-12-13T05:16:40;100831.32;;;7.69;100.00
63970;BME280;50156;37.772;-122.432;2022-12-13T05:19:09;100833.29;;;7.58;100.00
63970;BME280;50156;37.772;-122.432;2022-12-13T05:21:38;100833.70;;;7.54;100.00
63970;BME280;50156;37.772;-122.432;2022-12-13T05:24:08;100837.68;;;7.36;100.00
63970;BME280;50156;37.772;-122.432;2022-12-13T05:26:36;100841.21;;;7.33;100.00
63970;BME280;50156;37.772;-122.432;2022-12-13T05:29:05;100843.74;;;7.33;100.00
63970;BME280;50156;37.772;-122.432;2022-12-13T05:31:33;100846.01;;;7.28;100.00
63970;BME280;50156;37.772;-122.432;2022-12-13T05:34:02;100851.71;;;7.24;100.00
63970;BME280;50156;37.772;-122.432;2022-12-13T05:36:31;100852.28;;;7.21;100.00
63970;BME280;50156;37.772;-122.432;2022-12-13T05:38:59;100855.22;;;7.17;100.00
63970;BME280;50156;37.772;-122.432;2022-12-13T05:41:31;100860.15;;;7.20;100.00
63970;BME280;50156;37.772;-122.432;2022-12-13T05:44:00;100862.37;;;7.27;100.00
63970;BME280;50156;37.772;-122.432;2022-12-13T05:46:29;100864.00;;;7.31;100.00
63970;BME280;50156;37.772;-122.432;2022-12-13T05:48:57;100861.78;;;7.37;100.00
63970;BME280;50156;37.772;-122.432;2022-12-13T05:51:25;100858.64;;;7.31;100.00
63970;BME280;50156;37.772;-122.432;2022-12-13T05:53:54;100857.26;;;7.33;100.00
63970;BME280;50156;37.772;-122.432;2022-12-13T05:56:22;100856.76;;;7.32;100.00
63970;BME280;50156;37.772;-122.432;2022-12-13T05:58:51;100858.29;;;7.23;100.00
63970;BME280;50156;37.772;-122.432;2022-12-13T06:01:19;100855.26;;;7.08;100.00
63970;BME280;50156;37.772;-122.432;2022-12-13T06:03:48;100852.88;;;7.09;100.00
63970;BME280;50156;37.772;-122.432;2022-12-13T06:06:17;100856.71;;;6.98;100.00
63970;BME280;50156;37.772;-122.432;2022-12-13T06:08:45;100853.64;;;6.99;100.00
63970;BME280;50156;37.772;-122.432;2022-12-13T06:11:14;100854.00;;;6.89;100.00
63970;BME280;50156;37.772;-122.432;2022-12-13T06:13:43;100858.23;;;6.66;100.00
63970;BME280;50156;37.772;-122.432;2022-12-13T06:16:13;100861.97;;;6.65;100.00
63970;BME280;50156;37.772;-122.432;2022-12-13T06:18:42;100866.25;;;6.66;100.00
63970;BME280;50156;37.772;-122.432;2022-12-13T06:21:10;100869.80;;;6.57;100.00
63970;BME280;50156;37.772;-122.432;2022-12-13T06:23:39;100875.15;;;6.65;100.00
63970;BME280;50156;37.772;-122.432;2022-12-13T06:26:08;100882.44;;;6.63;100.00
63970;BME280;50156;37.772;-122.432;2022-12-13T06:28:36;100881.93;;;6.71;100.00
63970;BME280;50156;37.772;-122.432;2022-12-13T06:31:05;100882.68;;;6.69;100.00
63970;BME280;50156;37.772;-122.432;2022-12-13T06:33:34;100880.01;;;6.72;100.00
63970;BME280;50156;37.772;-122.432;2022-12-13T06:36:02;100881.49;;;6.60;100.00
63970;BME280;50156;37.772;-122.432;2022-12-13T06:38:31;100881.04;;;6.50;100.00
63970;BME280;50156;37.772;-122.432;2022-12-13T06:41:11;100883.09;;;6.55;100.00
63970;BME280;50156;37.772;-122.432;2022-12-13T06:43:42;100888.55;;;6.51;100.00
63970;BME280;50156;37.772;-122.432;2022-12-13T06:46:11;100891.90;;;6.55;100.00
63970;BME280;50156;37.772;-122.432;2022-12-13T06:48:39;100892.43;;;6.60;100.00
63970;BME280;50156;37.772;-122.432;2022-12-13T06:51:09;100890.65;;;6.55;100.00
63970;BME280;50156;37.772;-122.432;2022-12-13T06:53:39;100894.13;;;6.51;100.00
63970;BME280;50156;37.772;-122.432;2022-12-13T06:56:11;100890.39;;;6.57;100.00
63970;BME280;50156;37.772;-122.432;2022-12-13T06:58:40;100891.42;;;6.53;100.00
63970;BME280;50156;37.772;-122.432;2022-12-13T07:01:11;100888.22;;;6.55;100.00
63970;BME280;50156;37.772;-122.432;2022-12-13T07:03:40;100895.81;;;6.54;100.00
63970;BME280;50156;37.772;-122.432;2022-12-13T07:06:12;100900.87;;;6.42;100.00
63970;BME280;50156;37.772;-122.432;2022-12-13T07:08:42;100904.28;;;6.46;100.00
63970;BME280;50156;37.772;-122.432;2022-12-13T07:11:14;100909.36;;;6.35;100.00
63970;BME280;50156;37.772;-122.432;2022-12-13T07:13:43;100911.07;;;6.36;100.00
63970;BME280;50156;37.772;-122.432;2022-12-13T07:16:12;100915.44;;;6.33;100.00
63970;BME280;50156;37.772;-122.432;2022-12-13T07:18:40;100915.17;;;6.30;100.00
63970;BME280;50156;37.772;-122.432;2022-12-13T07:21:11;100915.79;;;6.47;100.00
63970;BME280;50156;37.772;-122.432;2022-12-13T07:23:41;100919.54;;;6.55;100.00
63970;BME280;50156;37.772;-122.432;2022-12-13T07:26:09;100921.44;;;6.53;100.00
63970;BME280;50156;37.772;-122.432;2022-12-13T07:28:38;100936.00;;;6.65;100.00
63970;BME280;50156;37.772;-122.432;2022-12-13T07:31:08;100938.78;;;6.73;100.00
63970;BME280;50156;37.772;-122.432;2022-12-13T07:33:38;100944.05;;;6.51;100.00
63970;BME280;50156;37.772;-122.432;2022-12-13T07:36:10;100945.29;;;6.59;100.00
63970;BME280;50156;37.772;-122.432;2022-12-13T07:38:39;100946.89;;;6.62;100.00
63970;BME280;50156;37.772;-122.432;2022-12-13T07:41:08;100948.59;;;6.62;100.00
63970;BME280;50156;37.772;-122.432;2022-12-13T07:43:37;100950.41;;;6.64;100.00
63970;BME280;50156;37.772;-122.432;2022-12-13T07:46:06;100949.58;;;6.59;100.00
63970;BME280;50156;37.772;-122.432;2022-12-13T07:48:34;100947.25;;;6.41;100.00
63970;BME280;50156;37.772;-122.432;2022-12-13T07:51:05;100946.52;;;6.39;100.00
63970;BME280;50156;37.772;-122.432;2022-12-13T07:53:36;100949.84;;;6.39;100.00
63970;BME280;50156;37.772;-122.432;2022-12-13T07:56:06;100946.49;;;6.37;100.00
63970;BME280;50156;37.772;-122.432;2022-12-13T07:58:35;100945.43;;;6.27;100.00
63970;BME280;50156;37.772;-122.432;2022-12-13T08:01:05;100945.31;;;6.29;100.00
63970;BME280;50156;37.772;-122.432;2022-12-13T08:03:34;100941.25;;;6.32;100.00
63970;BME280;50156;37.772;-122.432;2022-12-13T08:06:05;100939.92;;;6.22;100.00
63970;BME280;50156;37.772;-122.432;2022-12-13T08:08:35;100939.66;;;6.23;100.00
63970;BME280;50156;37.772;-122.432;2022-12-13T08:11:05;100938.46;;;6.19;100.00
63970;BME280;50156;37.772;-122.432;2022-12-13T08:13:35;100942.63;;;6.23;100.00
63970;BME280;50156;37.772;-122.432;2022-12-13T08:16:06;100947.15;;;6.12;100.00
63970;BME280;50156;37.772;-122.432;2022-12-13T08:18:35;100946.63;;;6.41;100.00
63970;BME280;50156;37.772;-122.432;2022-12-13T08:21:06;100943.06;;;6.31;100.00
63970;BME280;50156;37.772;-122.432;2022-12-13T08:23:35;100943.53;;;6.42;100.00
63970;BME280;50156;37.772;-122.432;2022-12-13T08:26:05;100944.08;;;6.48;100.00
63970;BME280;50156;37.772;-122.432;2022-12-13T08:28:34;100946.78;;;6.37;100.00
63970;BME280;50156;37.772;-122.432;2022-12-13T08:31:05;100952.19;;;6.52;100.00
63970;BME280;50156;37.772;-122.432;2022-12-13T08:33:34;100957.03;;;6.60;100.00
63970;BME280;50156;37.772;-122.432;2022-12-13T08:36:11;100959.06;;;6.50;100.00
63970;BME280;50156;37.772;-122.432;2022-12-13T08:38:40;100962.47;;;6.47;100.00
63970;BME280;50156;37.772;-122.432;2022-12-13T08:41:09;100964.25;;;6.48;100.00
63970;BME280;50156;37.772;-122.432;2022-12-13T08:43:37;100963.24;;;6.38;100.00
63970;BME280;50156;37.772;-122.432;2022-12-13T08:46:06;100962.60;;;6.36;100.00
63970;BME280;50156;37.772;-122.432;2022-12-13T08:48:35;100962.51;;;6.38;100.00
63970;BME280;50156;37.772;-122.432;2022-12-13T08:51:07;100966.91;;;6.38;100.00
63970;BME280;50156;37.772;-122.432;2022-12-13T08:53:36;100972.22;;;6.40;100.00
63970;BME280;50156;37.772;-122.432;2022-12-13T08:56:08;100974.42;;;6.27;100.00
63970;BME280;50156;37.772;-122.432;2022-12-13T08:58:38;100972.31;;;6.29;100.00
63970;BME280;50156;37.772;-122.432;2022-12-13T09:01:07;100975.29;;;6.44;100.00
63970;BME280;50156;37.772;-122.432;2022-12-13T09:03:36;100978.98;;;6.49;100.00
63970;BME280;50156;37.772;-122.432;2022-12-13T09:06:07;100984.11;;;6.41;100.00
63970;BME280;50156;37.772;-122.432;2022-12-13T09:08:36;100985.84;;;6.28;100.00
63970;BME280;50156;37.772;-122.432;2022-12-13T09:11:05;100989.63;;;6.19;100.00
63970;BME280;50156;37.772;-122.432;2022-12-13T09:13:35;100994.16;;;6.18;100.00
63970;BME280;50156;37.772;-122.432;2022-12-13T09:16:06;100992.98;;;6.06;100.00
63970;BME280;50156;37.772;-122.432;2022-12-13T09:18:34;100996.45;;;6.10;100.00
63970;BME280;50156;37.772;-122.432;2022-12-13T09:21:06;100993.19;;;6.20;100.00
63970;BME280;50156;37.772;-122.432;2022-12-13T09:23:35;100997.87;;;6.16;100.00
63970;BME280;50156;37.772;-122.432;2022-12-13T09:26:04;101000.33;;;6.05;100.00
63970;BME280;50156;37.772;-122.432;2022-12-13T09:28:33;101006.77;;;5.98;100.00
63970;BME280;50156;37.772;-122.432;2022-12-13T09:31:06;101010.65;;;6.04;100.00
63970;BME280;50156;37.772;-122.432;2022-12-13T09:33:36;101010.23;;;6.06;100.00
63970;BME280;50156;37.772;-122.432;2022-12-13T09:36:06;101014.19;;;6.00;100.00
63970;BME280;50156;37.772;-122.432;2022-12-13T09:38:37;101014.78;;;6.01;100.00
63970;BME280;50156;37.772;-122.432;2022-12-13T09:41:14;101016.59;;;5.80;100.00
63970;BME280;50156;37.772;-122.432;2022-12-13T09:43:44;101014.36;;;6.01;100.00
63970;BME280;50156;37.772;-122.432;2022-12-13T09:46:26;101015.11;;;6.17;100.00
63970;BME280;50156;37.772;-122.432;2022-12-13T09:48:57;101020.48;;;5.99;100.00
63970;BME280;50156;37.772;-122.432;2022-12-13T09:51:28;101023.85;;;6.04;100.00
63970;BME280;50156;37.772;-122.432;2022-12-13T09:54:00;101026.57;;;6.08;100.00
63970;BME280;50156;37.772;-122.432;2022-12-13T09:56:29;101032.40;;;6.07;100.00
63970;BME280;50156;37.772;-122.432;2022-12-13T09:58:57;101032.50;;;5.99;100.00
63970;BME280;50156;37.772;-122.432;2022-12-13T10:01:26;101035.21;;;5.86;100.00
63970;BME280;50156;37.772;-122.432;2022-12-13T10:03:59;101036.09;;;5.88;100.00
63970;BME280;50156;37.772;-122.432;2022-12-13T10:06:28;101033.87;;;5.97;100.00
63970;BME280;50156;37.772;-122.432;2022-12-13T10:08:58;101032.91;;;5.95;100.00
63970;BME280;50156;37.772;-122.432;2022-12-13T10:11:28;101034.37;;;5.91;100.00
63970;BME280;50156;37.772;-122.432;2022-12-13T10:14:01;101034.94;;;5.95;100.00
63970;BME280;50156;37.772;-122.432;2022-12-13T10:16:39;101034.12;;;5.96;100.00
63970;BME280;50156;37.772;-122.432;2022-12-13T10:19:16;101033.09;;;6.00;100.00
63970;BME280;50156;37.772;-122.432;2022-12-13T10:21:46;101038.12;;;5.94;100.00
63970;BME280;50156;37.772;-122.432;2022-12-13T10:24:18;101040.64;;;5.82;100.00
63970;BME280;50156;37.772;-122.432;2022-12-13T10:26:47;101043.42;;;5.84;100.00
63970;BME280;50156;37.772;-122.432;2022-12-13T10:29:15;101045.24;;;5.84;100.00
63970;BME280;50156;37.772;-122.432;2022-12-13T10:31:46;101049.02;;;5.76;100.00
63970;BME280;50156;37.772;-122.432;2022-12-13T10:34:21;101055.51;;;5.76;100.00
63970;BME280;50156;37.772;-122.432;2022-12-13T10:36:51;101079.98;;;5.74;100.00
63970;BME280;50156;37.772;-122.432;2022-12-13T10:39:36;101085.93;;;5.74;100.00
63970;BME280;50156;37.772;-122.432;2022-12-13T10:42:11;101094.48;;;5.70;100.00
63970;BME280;50156;37.772;-122.432;2022-12-13T10:44:40;101178.19;;;5.57;100.00
63970;BME280;50156;37.772;-122.432;2022-12-13T10:47:16;101193.55;;;5.55;100.00
63970;BME280;50156;37.772;-122.432;2022-12-13T10:49:49;101334.92;;;5.67;100.00
63970;BME280;50156;37.772;-122.432;2022-12-13T10:52:29;101411.14;;;5.85;100.00
63970;BME280;50156;37.772;-122.432;2022-12-13T10:55:00;101418.44;;;5.70;100.00
63970;BME280;50156;37.772;-122.432;2022-12-13T10:57:30;101426.94;;;5.57;100.00
63970;BME280;50156;37.772;-122.432;2022-12-13T11:00:00;101477.99;;;5.60;100.00
63970;BME280;50156;37.772;-122.432;2022-12-13T11:02:32;101494.77;;;5.56;100.00
63970;BME280;50156;37.772;-122.432;2022-12-13T11:05:22;101510.40;;;5.53;100.00
63970;BME280;50156;37.772;-122.432;2022-12-13T11:07:53;101521.17;;;5.43;100.00
63970;BME280;50156;37.772;-122.432;2022-12-13T11:10:24;101525.15;;;5.48;100.00
63970;BME280;50156;37.772;-122.432;2022-12-13T11:12:58;101536.33;;;5.51;100.00
63970;BME280;50156;37.772;-122.432;2022-12-13T11:15:28;101545.32;;;5.40;100.00
63970;BME280;50156;37.772;-122.432;2022-12-13T11:18:00;101554.56;;;5.56;100.00
63970;BME280;50156;37.772;-122.432;2022-12-13T11:20:33;101560.46;;;5.57;100.00
63970;BME280;50156;37.772;-122.432;2022-12-13T11:23:06;101561.25;;;5.64;100.00
63970;BME280;50156;37.772;-122.432;2022-12-13T11:25:43;101563.39;;;5.63;100.00
63970;BME280;50156;37.772;-122.432;2022-12-13T11:28:22;101567.62;;;5.68;100.00
63970;BME280;50156;37.772;-122.432;2022-12-13T11:31:07;101569.31;;;5.58;100.00
63970;BME280;50156;37.772;-122.432;2022-12-13T11:33:45;101574.46;;;5.71;100.00
63970;BME280;50156;37.772;-122.432;2022-12-13T11:36:27;101574.38;;;5.74;100.00
63970;BME280;50156;37.772;-122.432;2022-12-13T11:39:11;101571.75;;;5.66;100.00
63970;BME280;50156;37.772;-122.432;2022-12-13T11:41:48;101572.06;;;5.78;100.00
63970;BME280;50156;37.772;-122.432;2022-12-13T11:44:24;101570.30;;;5.72;100.00
63970;BME280;50156;37.772;-122.432;2022-12-13T11:46:57;101572.07;;;5.60;100.00
63970;BME280;50156;37.772;-122.432;2022-12-13T11:49:35;101567.92;;;5.51;100.00
63970;BME280;50156;37.772;-122.432;2022-12-13T11:52:12;101567.70;;;5.41;100.00
63970;BME280;50156;37.772;-122.432;2022-12-13T11:54:48;101570.08;;;5.35;100.00
63970;BME280;50156;37.772;-122.432;2022-12-13T11:57:28;101569.13;;;5.47;100.00
63970;BME280;50156;37.772;-122.432;2022-12-13T12:00:04;101572.59;;;5.38;100.00
63970;BME280;50156;37.772;-122.432;2022-12-13T12:02:37;101574.36;;;5.33;100.00
63970;BME280;50156;37.772;-122.432;2022-12-13T12:05:21;101572.56;;;5.23;100.00
63970;BME280;50156;37.772;-122.432;2022-12-13T12:07:56;101573.18;;;5.22;100.00
63970;BME280;50156;37.772;-122.432;2022-12-13T12:10:31;101573.32;;;5.40;100.00
63970;BME280;50156;37.772;-122.432;2022-12-13T12:13:09;101571.26;;;5.43;100.00
63970;BME280;50156;37.772;-122.432;2022-12-13T12:15:43;101572.97;;;5.39;100.00
63970;BME280;50156;37.772;-122.432;2022-12-13T12:18:14;101573.61;;;5.51;100.00
63970;BME280;50156;37.772;-122.432;2022-12-13T12:20:52;101572.93;;;5.46;100.00
63970;BME280;50156;37.772;-122.432;2022-12-13T12:23:32;101573.40;;;5.43;100.00
63970;BME280;50156;37.772;-122.432;2022-12-13T12:26:09;101577.57;;;5.36;100.00
63970;BME280;50156;37.772;-122.432;2022-12-13T12:28:55;101583.52;;;5.37;100.00
63970;BME280;50156;37.772;-122.432;2022-12-13T12:31:37;101583.93;;;5.47;100.00
63970;BME280;50156;37.772;-122.432;2022-12-13T12:34:17;101591.74;;;5.41;100.00
63970;BME280;50156;37.772;-122.432;2022-12-13T12:36:58;101595.27;;;5.61;100.00
63970;BME280;50156;37.772;-122.432;2022-12-13T12:39:43;101598.46;;;5.57;100.00
63970;BME280;50156;37.772;-122.432;2022-12-13T12:42:53;101600.09;;;5.50;100.00